createdAt,value
2017-09-05T05:28:03.029Z,47.20
2017-09-05T05:30:37.758Z,47.20
2017-09-05T05:38:47.926Z,45.80
2017-09-05T11:56:25.105Z,38.40
2017-09-05T11:59:08.665Z,38.40
2017-09-05T12:01:48.483Z,40.30
2017-09-05T12:04:22.640Z,37.40
2017-09-05T12:06:58.997Z,37.70
2017-09-05T12:09:32.005Z,38.20
2017-09-05T12:27:16.745Z,34.30
2017-09-05T15:48:09.114Z,32.00
2017-09-05T15:50:37.903Z,32.20
2017-09-05T15:53:16.778Z,32.10
2017-09-05T15:55:49.836Z,32.70
2017-09-05T15:58:26.436Z,32.20
2017-09-05T16:00:58.978Z,32.30
2017-09-05T16:03:31.285Z,32.70
2017-09-05T16:06:04.360Z,32.50
2017-09-05T16:11:28.244Z,33.60
2017-09-05T16:13:58.392Z,34.20
2017-09-05T16:16:28.561Z,34.60
2017-09-05T16:18:57.348Z,35.20
2017-09-05T16:21:32.229Z,35.60
2017-09-05T16:26:36.435Z,36.30
2017-09-05T16:29:11.808Z,36.70
2017-09-05T16:31:42.876Z,36.80
2017-09-05T16:34:16.967Z,36.50
2017-09-05T16:36:46.153Z,35.90
2017-09-05T16:39:19.096Z,36.50
2017-09-05T16:44:44.541Z,36.00
2017-09-05T16:47:17.377Z,37.20
2017-09-05T16:49:57.689Z,37.50
2017-09-05T16:52:30.596Z,38.00
2017-09-05T16:54:59.710Z,38.50
2017-09-05T16:57:33.895Z,38.60
2017-09-05T17:00:08.270Z,38.30
2017-09-05T17:02:38.586Z,38.40
2017-09-05T17:08:04.207Z,37.80
2017-09-05T17:13:48.076Z,38.00
2017-09-05T17:16:18.850Z,38.00
2017-09-05T17:18:47.716Z,38.50
2017-09-05T17:21:16.067Z,39.70
2017-09-05T17:23:45.569Z,39.80
2017-09-05T17:26:21.131Z,40.70
2017-09-05T17:31:49.138Z,40.70
2017-09-05T17:34:27.041Z,41.60
2017-09-05T17:36:56.167Z,41.30
2017-09-05T17:39:24.961Z,41.90
2017-09-05T17:41:53.652Z,43.10
2017-09-05T17:44:22.208Z,42.60
2017-09-05T17:46:50.844Z,40.80
2017-09-05T17:49:20.832Z,39.60
2017-09-05T17:51:49.741Z,37.90
2017-09-05T17:54:18.404Z,37.40
2017-09-05T17:56:46.783Z,36.80
2017-09-05T17:59:15.374Z,36.70
2017-09-05T18:01:44.660Z,36.60
2017-09-05T18:04:13.555Z,36.70
2017-09-05T18:06:42.467Z,36.90
2017-09-05T18:09:11.232Z,37.10
2017-09-05T18:11:40.119Z,37.40
2017-09-05T18:14:08.739Z,37.60
2017-09-05T18:16:37.947Z,37.60
2017-09-05T18:19:06.795Z,37.90
2017-09-05T18:21:40.272Z,38.60
2017-09-05T18:24:09.305Z,39.20
2017-09-05T18:29:29.221Z,41.10
2017-09-05T18:31:58.520Z,41.50
2017-09-05T18:34:26.909Z,41.50
2017-09-05T18:37:02.621Z,42.10
2017-09-05T18:39:32.419Z,43.00
2017-09-05T18:42:01.348Z,44.70
2017-09-05T18:44:30.432Z,45.50
2017-09-05T18:47:00.064Z,43.70
